Impacts METAR Board INFO
IDs:

KPIT - Pittsburgh Intl, PA, US

Updated at: 0356 UTC 20 Nov 2017
Potential Impact None Slight Moderate High
Time19/15Z 19/16Z 19/17Z 19/18Z 19/19Z 19/20Z 19/21Z 19/22Z 19/23Z 20/00Z 20/01Z 20/02Z 20/03Z
VIS10 10 10 10 10 10 5 10 10 9 10 10 10
CIG28 43 37 38 60 34 23 24 46 33 60 48 60
CoverOVCOVCBKNBKNOVCOVCOVCOVCOVCOVCOVCOVCBKN
FltCatMVFRVFRVFRVFRVFRVFRMVFRMVFRVFRVFRVFRVFRVFR
WX-----------SN-SN---SN-SN-SN----
WDir280270290280280270300290290280280280270
WSpd10 11 21 19 13 10 14 7 15 10 14 16 14
WGst-- -- 27 26 -- -- -- -- -- 21 20 24 --
Raw hourly METARs
KPIT 191451Z 28010KT 10SM BKN028 OVC041 03/00 A2978 RMK AO2 RAE08SNE02 SLP095 P0001 60001 T00280000 51033
KPIT 191551Z 27011KT 10SM FEW021 SCT028 OVC043 03/M01 A2980 RMK AO2 SNB03E19 SLP100 P0000 T00331006
KPIT 191651Z 29021G27KT 10SM SCT029 BKN037 03/M02 A2981 RMK AO2 PK WND 29027/1646 SLP106 T00281022
KPIT 191751Z 28019G26KT 10SM FEW029 BKN038 BKN060 04/M02 A2980 RMK AO2 PK WND 27026/1750 SLP104 60001 T00391022 10044 20017 50005
KPIT 191851Z 28013KT 10SM SCT032 OVC060 04/M02 A2980 RMK AO2 SNB18E51 SLP106 P0000 T00391022
KPIT 191951Z 27010KT 10SM -SN BKN034 BKN049 OVC055 04/M02 A2981 RMK AO2 SNB07 SLP109 P0000 T00391022
KPIT 192051Z 30014KT 5SM -SN FEW012 BKN023 OVC030 02/M01 A2984 RMK AO2 SLP120 P0000 60000 T00221011 53013
KPIT 192151Z 29007KT 10SM BKN024 BKN033 OVC070 02/00 A2985 RMK AO2 SNE51 SLP125 P0001 T00170000
KPIT 192251Z 29015KT 10SM -SN FEW033 BKN046 OVC070 02/M02 A2987 RMK AO2 SNB2159 SLP132 P0000 T00171022
KPIT 192351Z 28010G21KT 9SM -SN SCT024 BKN033 OVC065 02/M02 A2990 RMK AO2 SLP143 SCT V BKN P0000 60001 T00171017 10044 20011 53022
KPIT 200051Z 28014G20KT 10SM -SN FEW024 SCT038 OVC060 01/M02 A2992 RMK AO2 SLP150 P0000 T00061017
KPIT 200151Z 28016G24KT 10SM OVC048 01/M04 A2995 RMK AO2 SNE45 SLP160 P0000 T00061039
KPIT 200251Z 27014KT 10SM FEW045 BKN060 00/M06 A2996 RMK AO2 SLP165 60000 T00001056 51020